createdAt,value
2022-09-26T00:05:28.130Z,9.81
2022-09-26T00:16:13.070Z,9.76
2022-09-26T00:27:09.813Z,9.66
2022-09-26T00:38:17.115Z,9.46
2022-09-26T00:49:43.710Z,9.40
2022-09-26T01:00:50.805Z,9.23
2022-09-26T01:11:52.987Z,9.08
2022-09-26T01:22:52.859Z,8.99
2022-09-26T01:34:26.365Z,8.97
2022-09-26T01:45:31.307Z,8.86
2022-09-26T01:56:22.721Z,8.81
2022-09-26T02:07:33.609Z,8.75
2022-09-26T02:18:38.830Z,8.62
2022-09-26T02:29:07.670Z,8.59
2022-09-26T02:40:05.821Z,8.59
2022-09-26T02:51:15.077Z,8.58
2022-09-26T03:02:18.581Z,8.65
2022-09-26T03:13:35.299Z,8.68
2022-09-26T03:25:00.686Z,8.59
2022-09-26T03:36:09.176Z,8.52
2022-09-26T03:46:40.423Z,8.42
2022-09-26T03:57:47.510Z,8.33
2022-09-26T04:09:01.933Z,8.33
2022-09-26T04:20:18.466Z,8.30
2022-09-26T04:31:41.594Z,8.25
2022-09-26T04:42:42.829Z,8.17
2022-09-26T04:53:50.896Z,8.12
2022-09-26T05:04:59.933Z,8.17
2022-09-26T05:15:32.843Z,8.15
2022-09-26T05:26:42.427Z,8.28
2022-09-26T05:37:12.342Z,8.42
2022-09-26T05:48:07.349Z,8.58
2022-09-26T05:58:56.593Z,8.96
2022-09-26T06:10:05.219Z,9.33
2022-09-26T06:20:57.878Z,9.31
2022-09-26T06:31:36.390Z,9.47
2022-09-26T06:42:56.961Z,9.83
2022-09-26T06:54:14.218Z,10.13
2022-09-26T07:05:07.441Z,10.29
2022-09-26T07:15:51.694Z,10.57
2022-09-26T07:27:04.831Z,10.95
2022-09-26T07:38:05.116Z,11.51
2022-09-26T07:48:53.954Z,12.08
2022-09-26T07:59:54.398Z,12.76
2022-09-26T08:10:49.077Z,13.21
2022-09-26T08:21:37.532Z,13.66
2022-09-26T08:32:30.481Z,14.02
2022-09-26T08:43:40.643Z,14.39
2022-09-26T08:54:24.643Z,14.76
2022-09-26T09:05:00.033Z,14.88
2022-09-26T09:16:11.145Z,15.24
2022-09-26T09:38:18.445Z,15.43
2022-09-26T09:48:38.775Z,15.73
2022-09-26T09:59:29.265Z,16.10
2022-09-26T10:10:14.410Z,16.37
2022-09-26T10:21:09.608Z,16.69
2022-09-26T10:31:43.327Z,17.00
2022-09-26T10:42:09.918Z,17.42
2022-09-26T10:52:27.099Z,17.55
2022-09-26T11:02:57.122Z,17.61
2022-09-26T11:13:45.189Z,17.69
2022-09-26T11:24:42.970Z,17.80
2022-09-26T11:34:54.476Z,17.93
2022-09-26T11:45:42.830Z,18.07
2022-09-26T11:57:49.220Z,18.19
2022-09-26T12:08:30.264Z,18.39
2022-09-26T12:19:00.271Z,18.57
2022-09-26T12:29:45.574Z,18.67
2022-09-26T12:40:24.685Z,18.68
2022-09-26T12:50:57.753Z,18.57
2022-09-26T13:01:47.775Z,18.57
2022-09-26T13:12:08.492Z,18.75
2022-09-26T13:22:40.062Z,18.95
2022-09-26T13:32:55.957Z,19.00
2022-09-26T13:43:07.646Z,18.73
2022-09-26T13:54:14.360Z,18.70
2022-09-26T14:04:41.113Z,18.67
2022-09-26T14:15:16.366Z,18.36
2022-09-26T14:26:08.701Z,18.05
2022-09-26T14:36:55.953Z,17.77
2022-09-26T14:47:09.769Z,17.49
2022-09-26T14:57:31.773Z,17.36
2022-09-26T15:08:00.681Z,17.25
2022-09-26T15:18:26.739Z,17.07
2022-09-26T15:28:39.006Z,16.97
2022-09-26T15:39:50.820Z,16.99
2022-09-26T15:50:56.304Z,17.01
2022-09-26T16:01:51.961Z,16.90
2022-09-26T16:12:36.843Z,16.63
2022-09-26T16:23:34.429Z,16.38
2022-09-26T16:33:50.401Z,16.22
2022-09-26T16:44:23.284Z,16.07
2022-09-26T16:54:28.880Z,16.08
2022-09-26T17:04:41.799Z,16.09
2022-09-26T17:15:07.881Z,15.96
2022-09-26T17:25:36.143Z,15.69
2022-09-26T17:36:23.458Z,15.53
2022-09-26T17:46:48.478Z,15.48
2022-09-26T17:58:08.187Z,15.40
2022-09-26T18:19:52.388Z,14.95
2022-09-26T18:31:00.468Z,14.89
2022-09-26T18:41:57.253Z,14.74
2022-09-26T18:52:35.694Z,14.66
2022-09-26T19:02:49.479Z,14.56
2022-09-26T19:13:15.817Z,14.40
2022-09-26T19:35:58.704Z,14.15
2022-09-26T19:46:38.645Z,14.01
2022-09-26T19:56:48.334Z,13.92
2022-09-26T20:06:58.639Z,13.86
2022-09-26T20:17:37.145Z,13.72
2022-09-26T20:28:00.237Z,13.52
2022-09-26T20:38:32.187Z,13.36
2022-09-26T20:49:10.169Z,13.14
2022-09-26T20:59:41.751Z,13.00
2022-09-26T21:10:40.186Z,12.79
2022-09-26T21:20:51.563Z,12.75
2022-09-26T21:32:04.828Z,12.83
2022-09-26T21:42:47.157Z,12.89
2022-09-26T21:53:40.626Z,12.76
2022-09-26T22:04:15.652Z,12.78
2022-09-26T22:14:41.845Z,12.77
2022-09-26T22:25:02.585Z,12.81
2022-09-26T22:35:16.661Z,12.86
2022-09-26T22:46:23.210Z,12.85
2022-09-26T22:57:05.400Z,12.82
2022-09-26T23:07:32.009Z,12.84
2022-09-26T23:18:42.004Z,12.90
2022-09-26T23:29:22.362Z,12.93
2022-09-26T23:40:04.805Z,12.93
2022-09-26T23:50:34.036Z,12.95
